Time;durP1;ratioP1;P1;durP2;ratioP2;P2;SDS_P1;SDS_P2;PMS_P1;PMS_P2;Temp;Humidity;BMP_temperature;BMP_pressure;BME280_temperature;BME280_humidity;BME280_pressure;Samples;Min_cycle;Max_cycle;Signal;HPM_P1;HPM_P2
2021/10/10 00:01:54;;;;;;;;;;;12.80;99.90;;;;;;5095382;28;19904;-73
2021/10/10 00:04:20;;;;;;;;;;;12.80;99.90;;;;;;5095078;28;20280;-73
2021/10/10 00:06:45;;;;;;;;;;;12.80;99.90;;;;;;5095272;28;19903;-73
2021/10/10 00:09:11;;;;;;;;;;;12.80;99.90;;;;;;5094935;28;20252;-73
2021/10/10 00:11:36;;;;;;;;;;;12.70;99.90;;;;;;5094642;28;19916;-74
2021/10/10 00:14:02;;;;;;;;;;;12.70;99.90;;;;;;5095421;28;19904;-74
2021/10/10 00:16:27;;;;;;;;;;;12.70;99.90;;;;;;5094858;28;19914;-73
2021/10/10 00:18:53;;;;;;;;;;;12.60;99.90;;;;;;5094870;28;19912;-73
2021/10/10 00:21:18;;;;;;;;;;;12.70;99.90;;;;;;5094954;28;19912;-74
2021/10/10 00:23:44;;;;;;;;;;;12.60;99.90;;;;;;5094717;28;19926;-74
2021/10/10 00:26:09;;;;;;;;;;;12.60;99.90;;;;;;5094942;28;19939;-73
2021/10/10 00:28:35;;;;;;;;;;;12.60;99.90;;;;;;5094611;28;20414;-74
2021/10/10 00:31:01;;;;;;;;;;;12.60;99.90;;;;;;5094510;28;20011;-74
2021/10/10 00:33:26;;;;;;;;;;;12.60;99.90;;;;;;5094533;28;20280;-73
2021/10/10 00:35:52;;;;;;;;;;;12.60;99.90;;;;;;5094457;28;19904;-74
2021/10/10 00:38:17;;;;;;;;;;;12.50;99.90;;;;;;5094404;28;20287;-74
2021/10/10 00:40:43;;;;;;;;;;;12.40;99.90;;;;;;5094385;28;19970;-73
2021/10/10 00:43:09;;;;;;;;;;;12.40;99.90;;;;;;5094641;28;19999;-74
2021/10/10 00:45:35;;;;;;;;;;;12.40;99.90;;;;;;5094317;28;19904;-73
2021/10/10 00:48:01;;;;;;;;;;;12.40;99.90;;;;;;5094275;28;19947;-74
2021/10/10 00:50:27;;;;;;;;;;;12.50;99.90;;;;;;5094217;28;19908;-73
2021/10/10 00:52:53;;;;;;;;;;;12.40;99.90;;;;;;5094406;28;20341;-74
2021/10/10 00:55:20;;;;;;;;;;;12.40;99.90;;;;;;5094444;28;19911;-74
2021/10/10 00:57:47;;;;;;;;;;;12.30;99.90;;;;;;5094145;28;19903;-74
2021/10/10 01:00:13;;;;;;;;;;;12.20;99.90;;;;;;5093588;28;19911;-72
2021/10/10 01:02:39;;;;;;;;;;;12.10;99.90;;;;;;5094028;28;19904;-73
2021/10/10 01:05:05;;;;;;;;;;;12.10;99.90;;;;;;5094019;28;19904;-74
2021/10/10 01:07:31;;;;;;;;;;;12.10;99.90;;;;;;5094009;28;19990;-73
2021/10/10 01:09:57;;;;;;;;;;;12.20;99.90;;;;;;5094214;28;19904;-73
2021/10/10 01:12:23;;;;;;;;;;;12.10;99.90;;;;;;5093679;28;19939;-74
2021/10/10 01:14:49;;;;;;;;;;;12.10;99.90;;;;;;5093948;28;20356;-73
2021/10/10 01:17:14;;;;;;;;;;;12.00;99.90;;;;;;5093900;28;19904;-74
2021/10/10 01:19:41;;;;;;;;;;;12.00;99.90;;;;;;5093870;28;20359;-74
2021/10/10 01:22:07;;;;;;;;;;;12.00;99.90;;;;;;5094322;28;19991;-74
2021/10/10 01:24:33;;;;;;;;;;;12.00;99.90;;;;;;5093823;28;19932;-74
2021/10/10 01:26:58;;;;;;;;;;;12.00;99.90;;;;;;5092511;28;19908;-75
2021/10/10 01:29:24;;;;;;;;;;;12.00;99.90;;;;;;5093785;28;19904;-73
2021/10/10 01:31:49;;;;;;;;;;;12.10;99.90;;;;;;5093644;28;19914;-74
2021/10/10 01:34:15;;;;;;;;;;;12.10;99.90;;;;;;5094248;28;19939;-75
2021/10/10 01:36:41;;;;;;;;;;;12.10;99.90;;;;;;5093682;28;19904;-73
2021/10/10 01:39:07;;;;;;;;;;;12.00;99.90;;;;;;5093931;28;19904;-74
2021/10/10 01:41:32;;;;;;;;;;;12.00;99.90;;;;;;5093632;28;19904;-73
2021/10/10 01:43:58;;;;;;;;;;;12.00;99.90;;;;;;5093891;28;20307;-73
2021/10/10 01:46:23;;;;;;;;;;;12.00;99.90;;;;;;5093910;28;19904;-74
2021/10/10 01:48:49;;;;;;;;;;;12.00;99.90;;;;;;5093567;28;19911;-74
2021/10/10 01:51:14;;;;;;;;;;;12.00;99.90;;;;;;5093792;28;19965;-74
2021/10/10 01:53:40;;;;;;;;;;;12.00;99.90;;;;;;5093553;28;19904;-74
2021/10/10 01:56:06;;;;;;;;;;;12.10;99.90;;;;;;5093534;28;19910;-74
2021/10/10 01:58:32;;;;;;;;;;;12.10;99.90;;;;;;5093461;28;20306;-74
2021/10/10 02:00:58;;;;;;;;;;;12.10;99.90;;;;;;5093488;28;19915;-74
2021/10/10 02:03:24;;;;;;;;;;;12.10;99.90;;;;;;5094012;28;20003;-74
2021/10/10 02:05:50;;;;;;;;;;;12.10;99.90;;;;;;5093409;28;19907;-74
2021/10/10 02:08:16;;;;;;;;;;;12.10;99.90;;;;;;5093436;28;19943;-74
2021/10/10 02:10:42;;;;;;;;;;;12.10;99.90;;;;;;5093591;28;19904;-74
2021/10/10 02:13:07;;;;;;;;;;;12.10;99.90;;;;;;5095527;28;20374;-73
2021/10/10 02:15:33;;;;;;;;;;;12.20;99.90;;;;;;5095893;28;20372;-74
2021/10/10 02:17:58;;;;;;;;;;;12.20;99.90;;;;;;5097135;28;19908;-73
2021/10/10 02:20:24;;;;;;;;;;;12.20;99.90;;;;;;5097358;28;19905;-74
2021/10/10 02:22:49;;;;;;;;;;;12.20;99.90;;;;;;5097021;28;19912;-74
2021/10/10 02:25:15;;;;;;;;;;;12.20;99.90;;;;;;5096968;28;19911;-73
2021/10/10 02:27:40;;;;;;;;;;;12.10;99.90;;;;;;5096955;28;19954;-74
2021/10/10 02:30:06;;;;;;;;;;;12.20;99.90;;;;;;5097186;28;19987;-73
2021/10/10 02:32:32;;;;;;;;;;;12.20;99.90;;;;;;5097020;28;19908;-74
2021/10/10 02:34:58;;;;;;;;;;;12.20;99.90;;;;;;5097070;28;19913;-73
2021/10/10 02:37:24;;;;;;;;;;;12.30;99.90;;;;;;5095538;28;19953;-73
2021/10/10 02:39:51;;;;;;;;;;;12.30;99.90;;;;;;5096717;28;20302;-73
2021/10/10 02:42:17;;;;;;;;;;;12.20;99.90;;;;;;5096956;28;19911;-73
2021/10/10 02:44:42;;;;;;;;;;;12.00;99.90;;;;;;5096602;28;20268;-74
2021/10/10 02:47:08;;;;;;;;;;;12.10;99.90;;;;;;5097136;28;19908;-73
2021/10/10 02:49:33;;;;;;;;;;;12.10;99.90;;;;;;5096509;28;19904;-73
2021/10/10 02:51:59;;;;;;;;;;;12.00;99.90;;;;;;5096677;28;19908;-73
2021/10/10 02:54:24;;;;;;;;;;;12.00;99.90;;;;;;5096447;28;19904;-75
2021/10/10 02:56:50;;;;;;;;;;;12.10;99.90;;;;;;5096385;28;19911;-74
2021/10/10 02:59:15;;;;;;;;;;;12.00;99.90;;;;;;5096609;28;19911;-74
2021/10/10 03:01:41;;;;;;;;;;;12.00;99.90;;;;;;5096293;28;20269;-73
2021/10/10 03:04:06;;;;;;;;;;;11.80;99.90;;;;;;5096284;28;20003;-74
2021/10/10 03:06:32;;;;;;;;;;;11.80;99.90;;;;;;5096522;28;19995;-74
2021/10/10 03:08:57;;;;;;;;;;;11.90;99.90;;;;;;5096196;28;20455;-73
2021/10/10 03:11:23;;;;;;;;;;;11.90;99.90;;;;;;5096067;28;19923;-75
2021/10/10 03:13:49;;;;;;;;;;;11.90;99.90;;;;;;5096076;28;20284;-73
2021/10/10 03:16:15;;;;;;;;;;;12.00;99.90;;;;;;5096810;28;19970;-74
2021/10/10 03:18:41;;;;;;;;;;;12.00;99.90;;;;;;5096014;28;19904;-74
2021/10/10 03:21:06;;;;;;;;;;;12.00;99.90;;;;;;5095891;28;20279;-75
2021/10/10 03:23:32;;;;;;;;;;;12.00;99.90;;;;;;5095669;28;20272;-73
2021/10/10 03:25:57;;;;;;;;;;;12.00;99.90;;;;;;5095821;28;20321;-74
2021/10/10 03:28:23;;;;;;;;;;;11.80;99.90;;;;;;5096381;28;20351;-73
2021/10/10 03:30:49;;;;;;;;;;;11.90;99.90;;;;;;5095696;28;19953;-74
2021/10/10 03:33:14;;;;;;;;;;;11.90;99.90;;;;;;5096008;28;20394;-74
2021/10/10 03:35:40;;;;;;;;;;;11.90;99.90;;;;;;5095952;28;20406;-73
2021/10/10 03:38:05;;;;;;;;;;;11.90;99.90;;;;;;5095599;28;20330;-73
2021/10/10 03:40:31;;;;;;;;;;;12.00;99.90;;;;;;5095568;28;19904;-73
2021/10/10 03:42:56;;;;;;;;;;;12.00;99.90;;;;;;5096092;28;19904;-73
2021/10/10 03:45:22;;;;;;;;;;;11.90;99.90;;;;;;5095450;28;19904;-75
2021/10/10 03:47:48;;;;;;;;;;;11.90;99.90;;;;;;5095704;28;19915;-74
2021/10/10 03:50:13;;;;;;;;;;;12.00;99.90;;;;;;5095333;28;19904;-75
2021/10/10 03:52:41;;;;;;;;;;;12.00;99.90;;;;;;5095265;28;19908;-75
2021/10/10 03:57:35;;;;;;;;;;;12.20;99.90;;;;;;5095255;28;19904;-74
2021/10/10 04:00:04;;;;;;;;;;;12.20;99.90;;;;;;5095494;28;20314;-72
2021/10/10 04:02:30;;;;;;;;;;;12.10;99.90;;;;;;5093845;28;19912;-75
2021/10/10 04:04:56;;;;;;;;;;;12.10;99.90;;;;;;5095354;28;20413;-73
2021/10/10 04:07:22;;;;;;;;;;;12.10;99.90;;;;;;5095047;28;19904;-74
2021/10/10 04:09:47;;;;;;;;;;;12.10;99.90;;;;;;5095027;28;19929;-75
2021/10/10 04:12:13;;;;;;;;;;;12.00;99.90;;;;;;5094658;28;19999;-75
2021/10/10 04:14:38;;;;;;;;;;;12.10;99.90;;;;;;5093572;28;20257;-74
2021/10/10 04:17:04;;;;;;;;;;;12.10;99.90;;;;;;5094828;28;19908;-73
2021/10/10 04:19:31;;;;;;;;;;;12.10;99.90;;;;;;5095055;28;19911;-75
2021/10/10 04:21:57;;;;;;;;;;;12.10;99.90;;;;;;5094685;28;19949;-73
2021/10/10 04:24:22;;;;;;;;;;;12.00;99.90;;;;;;5094991;28;19910;-73
2021/10/10 04:26:48;;;;;;;;;;;12.00;99.90;;;;;;5094655;28;19995;-73
2021/10/10 04:29:13;;;;;;;;;;;12.10;99.90;;;;;;5094627;28;20430;-73
2021/10/10 04:31:39;;;;;;;;;;;12.10;99.90;;;;;;5094836;28;19908;-73
2021/10/10 04:34:04;;;;;;;;;;;12.10;99.90;;;;;;5094333;28;19954;-74
2021/10/10 04:36:30;;;;;;;;;;;12.20;99.90;;;;;;5094217;28;19987;-74
2021/10/10 04:38:55;;;;;;;;;;;12.10;99.90;;;;;;5094497;28;19904;-73
2021/10/10 04:41:21;;;;;;;;;;;12.10;99.90;;;;;;5094724;28;19911;-74
2021/10/10 04:43:46;;;;;;;;;;;12.10;99.90;;;;;;5094333;28;20364;-73
2021/10/10 04:46:12;;;;;;;;;;;12.10;99.90;;;;;;5094329;28;19904;-74
2021/10/10 04:48:37;;;;;;;;;;;12.20;99.90;;;;;;5094821;28;19961;-73
2021/10/10 04:51:03;;;;;;;;;;;12.30;99.90;;;;;;5094194;28;20002;-74
2021/10/10 04:53:29;;;;;;;;;;;12.30;99.90;;;;;;5094195;28;20279;-73
2021/10/10 04:55:54;;;;;;;;;;;12.20;99.90;;;;;;5094754;28;19910;-73
2021/10/10 04:58:20;;;;;;;;;;;12.30;99.90;;;;;;5094153;28;20368;-74
2021/10/10 05:00:45;;;;;;;;;;;12.30;99.90;;;;;;5094118;28;19954;-74
2021/10/10 05:03:11;;;;;;;;;;;12.40;99.90;;;;;;5094672;28;19904;-74
2021/10/10 05:05:41;;;;;;;;;;;12.40;99.90;;;;;;5092771;28;19951;-74
2021/10/10 05:08:07;;;;;;;;;;;12.40;99.90;;;;;;5094002;28;19911;-74
2021/10/10 05:10:32;;;;;;;;;;;12.40;99.90;;;;;;5093976;28;19904;-75
2021/10/10 05:12:58;;;;;;;;;;;12.30;99.90;;;;;;5093532;28;20383;-74
2021/10/10 05:15:23;;;;;;;;;;;12.40;99.90;;;;;;5094208;28;19904;-74
2021/10/10 05:17:49;;;;;;;;;;;12.60;99.90;;;;;;5093936;28;19911;-74
2021/10/10 05:20:14;;;;;;;;;;;12.60;99.90;;;;;;5093826;28;19904;-73
2021/10/10 05:22:41;;;;;;;;;;;12.60;99.90;;;;;;5094139;28;19904;-74
2021/10/10 05:25:06;;;;;;;;;;;12.50;99.90;;;;;;5093842;28;19904;-75
2021/10/10 05:27:32;;;;;;;;;;;12.50;99.90;;;;;;5093796;28;19911;-73
2021/10/10 05:29:58;;;;;;;;;;;12.60;99.90;;;;;;5093812;28;19915;-74
2021/10/10 05:32:23;;;;;;;;;;;12.70;99.90;;;;;;5093946;28;19940;-73
2021/10/10 05:34:49;;;;;;;;;;;12.70;99.90;;;;;;5093768;28;20301;-74
2021/10/10 05:37:14;;;;;;;;;;;12.80;99.90;;;;;;5093725;28;19911;-73
2021/10/10 05:39:40;;;;;;;;;;;12.80;99.90;;;;;;5093684;28;19950;-74
2021/10/10 05:42:05;;;;;;;;;;;12.90;99.90;;;;;;5093969;28;19904;-75
2021/10/10 05:44:31;;;;;;;;;;;12.80;99.90;;;;;;5093643;28;20341;-74
2021/10/10 05:46:56;;;;;;;;;;;12.80;99.90;;;;;;5095593;28;19908;-73
2021/10/10 05:49:22;;;;;;;;;;;12.90;99.90;;;;;;5097699;28;19904;-76
2021/10/10 05:51:47;;;;;;;;;;;12.80;99.90;;;;;;5098161;28;20083;-74
2021/10/10 05:54:15;;;;;;;;;;;12.90;99.90;;;;;;5097619;28;19983;-75
2021/10/10 05:56:41;;;;;;;;;;;12.90;99.90;;;;;;5097852;28;19910;-73
2021/10/10 05:59:09;;;;;;;;;;;12.80;99.90;;;;;;5097562;28;19904;-73
2021/10/10 06:01:34;;;;;;;;;;;12.80;99.90;;;;;;5096266;28;20284;-75
2021/10/10 06:04:02;;;;;;;;;;;12.80;99.90;;;;;;5097475;28;19904;-75
2021/10/10 06:06:27;;;;;;;;;;;12.80;99.90;;;;;;5097662;28;19904;-74
2021/10/10 06:08:53;;;;;;;;;;;12.70;99.90;;;;;;5097624;28;19911;-74
2021/10/10 06:11:19;;;;;;;;;;;12.80;99.90;;;;;;5097089;28;19916;-74
2021/10/10 06:13:44;;;;;;;;;;;12.80;99.90;;;;;;5095968;28;19904;-73
2021/10/10 06:16:10;;;;;;;;;;;12.90;99.90;;;;;;5097223;28;19904;-73
2021/10/10 06:18:36;;;;;;;;;;;12.90;99.90;;;;;;5097149;28;19904;-73
2021/10/10 06:21:01;;;;;;;;;;;12.90;99.90;;;;;;5097063;28;19904;-74
2021/10/10 06:23:27;;;;;;;;;;;12.90;99.90;;;;;;5097090;28;19911;-73
2021/10/10 06:25:53;;;;;;;;;;;12.90;99.90;;;;;;5097320;28;19905;-73
2021/10/10 06:28:18;;;;;;;;;;;12.90;99.90;;;;;;5096960;28;20006;-73
2021/10/10 06:30:44;;;;;;;;;;;12.90;99.90;;;;;;5096846;28;20045;-74
2021/10/10 06:33:10;;;;;;;;;;;12.90;99.90;;;;;;5097437;28;19904;-74
2021/10/10 06:35:35;;;;;;;;;;;12.80;99.90;;;;;;5096811;28;20433;-74
2021/10/10 06:38:01;;;;;;;;;;;12.80;99.90;;;;;;5096775;28;19991;-74
2021/10/10 06:40:27;;;;;;;;;;;12.80;99.90;;;;;;5096756;28;19911;-74
2021/10/10 06:42:52;;;;;;;;;;;12.80;99.90;;;;;;5096979;28;20006;-74
2021/10/10 06:45:18;;;;;;;;;;;12.70;99.90;;;;;;5096662;28;19915;-74
2021/10/10 06:47:43;;;;;;;;;;;12.70;99.90;;;;;;5096935;28;19911;-73
2021/10/10 06:50:09;;;;;;;;;;;12.70;99.90;;;;;;5096619;28;19910;-75
2021/10/10 06:52:34;;;;;;;;;;;12.70;99.90;;;;;;5096466;28;20371;-74
2021/10/10 06:55:00;;;;;;;;;;;12.70;99.90;;;;;;5096494;28;20433;-74
2021/10/10 06:57:29;;;;;;;;;;;12.70;99.90;;;;;;5096167;28;20325;-74
2021/10/10 06:59:58;;;;;;;;;;;12.70;99.90;;;;;;5096100;28;19969;-74
2021/10/10 07:02:23;;;;;;;;;;;12.70;99.90;;;;;;5096907;28;20314;-74
2021/10/10 07:04:49;;;;;;;;;;;12.80;99.90;;;;;;5096289;28;19904;-74
2021/10/10 07:07:14;;;;;;;;;;;12.80;99.90;;;;;;5096531;28;19952;-74
2021/10/10 07:09:40;;;;;;;;;;;12.80;99.90;;;;;;5096184;28;19904;-74
2021/10/10 07:12:05;;;;;;;;;;;12.90;99.90;;;;;;5095894;28;19915;-74
2021/10/10 07:14:31;;;;;;;;;;;12.90;99.90;;;;;;5096408;28;19904;-74
2021/10/10 07:16:57;;;;;;;;;;;12.90;99.90;;;;;;5096341;28;19904;-73
2021/10/10 07:19:26;;;;;;;;;;;13.00;99.90;;;;;;5096019;28;19905;-74
2021/10/10 07:21:58;;;;;;;;;;;13.10;99.90;;;;;;5095926;28;19905;-75
2021/10/10 07:27:08;;;;;;;;;;;13.10;99.90;;;;;;5095487;28;20393;-73
2021/10/10 07:29:34;;;;;;;;;;;13.10;99.90;;;;;;5095840;28;19935;-74
2021/10/10 07:31:59;;;;;;;;;;;13.10;99.90;;;;;;5095654;28;19998;-73
2021/10/10 07:34:25;;;;;;;;;;;13.10;99.90;;;;;;5095709;28;19904;-73
2021/10/10 07:36:50;;;;;;;;;;;13.10;99.90;;;;;;5096215;28;19995;-74
2021/10/10 07:39:16;;;;;;;;;;;13.00;99.90;;;;;;5095612;28;19904;-74
2021/10/10 07:41:41;;;;;;;;;;;13.10;99.90;;;;;;5095566;28;19904;-73
2021/10/10 07:44:11;;;;;;;;;;;13.10;99.90;;;;;;5095806;28;20276;-74
2021/10/10 07:46:38;;;;;;;;;;;13.10;99.90;;;;;;5095415;28;19904;-73
2021/10/10 07:49:04;;;;;;;;;;;13.20;99.90;;;;;;5095720;28;19966;-75
2021/10/10 07:51:30;;;;;;;;;;;13.20;99.90;;;;;;5095308;28;20390;-74
2021/10/10 07:53:56;;;;;;;;;;;13.20;99.90;;;;;;5095328;28;19907;-73
2021/10/10 07:56:21;;;;;;;;;;;13.20;99.90;;;;;;5095299;28;19953;-74
2021/10/10 07:58:47;;;;;;;;;;;13.30;99.90;;;;;;5095253;28;19908;-74
2021/10/10 08:01:12;;;;;;;;;;;13.40;99.90;;;;;;5095451;28;19904;-74
2021/10/10 08:03:38;;;;;;;;;;;13.40;99.90;;;;;;5095146;28;19907;-75
2021/10/10 08:06:03;;;;;;;;;;;13.50;99.90;;;;;;5095118;28;20033;-74
2021/10/10 08:08:29;;;;;;;;;;;13.50;99.90;;;;;;5095324;28;19952;-74
2021/10/10 08:10:54;;;;;;;;;;;13.60;99.90;;;;;;5094654;28;19926;-74
2021/10/10 08:13:20;;;;;;;;;;;13.60;99.90;;;;;;5095267;28;19900;-75
2021/10/10 08:15:46;;;;;;;;;;;13.70;99.90;;;;;;5094915;28;19911;-74
2021/10/10 08:18:11;;;;;;;;;;;13.70;99.90;;;;;;5094863;28;19908;-73
2021/10/10 08:20:38;;;;;;;;;;;13.70;99.90;;;;;;5095112;28;19904;-75
2021/10/10 08:23:04;;;;;;;;;;;13.90;99.90;;;;;;5095023;28;20372;-74
2021/10/10 08:25:32;;;;;;;;;;;14.20;99.90;;;;;;5094717;28;19911;-72
2021/10/10 08:27:58;;;;;;;;;;;14.40;99.90;;;;;;5094978;28;19904;-75
2021/10/10 08:30:23;;;;;;;;;;;14.80;99.90;;;;;;5094924;28;19930;-74
2021/10/10 08:32:49;;;;;;;;;;;15.00;99.90;;;;;;5094497;28;20004;-74
2021/10/10 08:35:15;;;;;;;;;;;15.10;99.90;;;;;;5094563;28;20283;-74
2021/10/10 08:37:42;;;;;;;;;;;15.20;99.90;;;;;;5094528;28;19990;-74
2021/10/10 08:40:08;;;;;;;;;;;15.40;99.90;;;;;;5094802;28;19999;-75
2021/10/10 08:42:35;;;;;;;;;;;15.50;99.90;;;;;;5094793;28;19938;-73
2021/10/10 08:45:08;;;;;;;;;;;15.60;99.90;;;;;;5094427;28;19911;-74
2021/10/10 08:47:41;;;;;;;;;;;15.80;99.90;;;;;;5095009;28;19908;-75
2021/10/10 08:50:12;;;;;;;;;;;15.80;99.90;;;;;;5094382;28;19904;-74
2021/10/10 08:52:37;;;;;;;;;;;16.00;99.90;;;;;;5094502;28;19907;-75
2021/10/10 08:55:05;;;;;;;;;;;16.20;99.90;;;;;;5094532;28;19991;-75
2021/10/10 08:57:30;;;;;;;;;;;16.40;99.90;;;;;;5094096;28;20312;-74
2021/10/10 09:00:03;;;;;;;;;;;16.80;99.90;;;;;;5094746;28;19965;-75
2021/10/10 09:02:31;;;;;;;;;;;16.80;99.90;;;;;;5092562;28;20443;-75
2021/10/10 09:04:58;;;;;;;;;;;16.60;99.90;;;;;;5094081;28;20019;-74
2021/10/10 09:07:23;;;;;;;;;;;16.30;99.90;;;;;;5094333;28;20368;-74
2021/10/10 09:09:49;;;;;;;;;;;16.20;99.90;;;;;;5094011;28;19939;-75
2021/10/10 09:12:14;;;;;;;;;;;16.10;99.90;;;;;;5093936;28;19917;-75
2021/10/10 09:14:50;;;;;;;;;;;16.20;99.90;;;;;;5094230;28;19954;-75
2021/10/10 09:17:17;;;;;;;;;;;16.50;99.90;;;;;;5093902;28;20006;-75
2021/10/10 09:19:50;;;;;;;;;;;16.50;99.90;;;;;;5094480;28;20271;-74
2021/10/10 09:22:16;;;;;;;;;;;16.20;99.90;;;;;;5093420;28;19904;-74
2021/10/10 09:24:41;;;;;;;;;;;15.90;99.90;;;;;;5093853;28;19941;-74
2021/10/10 09:27:11;;;;;;;;;;;15.90;99.90;;;;;;5094378;28;19939;-75
2021/10/10 09:29:38;;;;;;;;;;;16.10;99.90;;;;;;5093778;28;19999;-74
2021/10/10 09:32:24;;;;;;;;;;;16.50;99.90;;;;;;5093632;28;19943;-75
2021/10/10 09:34:50;;;;;;;;;;;16.60;99.90;;;;;;5093356;28;19957;-74
2021/10/10 09:37:29;;;;;;;;;;;16.50;99.90;;;;;;5094015;28;19908;-74
2021/10/10 09:42:42;;;;;;;;;;;16.90;99.90;;;;;;5093690;28;20257;-75
2021/10/10 09:45:24;;;;;;;;;;;16.90;99.90;;;;;;5094199;28;19904;-75
2021/10/10 09:47:52;;;;;;;;;;;16.90;99.90;;;;;;5093525;28;19904;-73
2021/10/10 09:50:18;;;;;;;;;;;16.90;99.90;;;;;;5093832;28;19912;-76
2021/10/10 09:52:43;;;;;;;;;;;17.10;99.90;;;;;;5093517;28;20360;-75
2021/10/10 09:55:10;;;;;;;;;;;17.20;99.90;;;;;;5093507;28;20003;-74
2021/10/10 09:57:43;;;;;;;;;;;17.30;99.90;;;;;;5093541;28;19904;-75
2021/10/10 10:00:19;;;;;;;;;;;17.10;99.90;;;;;;5093813;28;19908;-75
2021/10/10 10:02:46;;;;;;;;;;;17.00;99.90;;;;;;5093399;28;19904;-74
2021/10/10 10:05:28;;;;;;;;;;;16.90;99.90;;;;;;5093495;28;19904;-74
2021/10/10 10:07:54;;;;;;;;;;;16.90;99.90;;;;;;5093424;28;19966;-75
2021/10/10 10:10:21;;;;;;;;;;;17.00;99.90;;;;;;5093410;28;19908;-75
2021/10/10 10:12:47;;;;;;;;;;;17.00;99.90;;;;;;5093116;28;19920;-74
2021/10/10 10:15:13;;;;;;;;;;;16.90;99.90;;;;;;5093642;28;19908;-74
2021/10/10 10:17:39;;;;;;;;;;;16.70;99.90;;;;;;5093601;28;19907;-74
2021/10/10 10:20:05;;;;;;;;;;;16.60;99.90;;;;;;5093721;28;19904;-75
2021/10/10 10:22:31;;;;;;;;;;;16.40;99.90;;;;;;5093313;28;19912;-74
2021/10/10 10:24:58;;;;;;;;;;;16.30;99.90;;;;;;5093547;28;19949;-74
2021/10/10 10:27:23;;;;;;;;;;;16.20;99.90;;;;;;5093264;28;19904;-74
2021/10/10 10:29:50;;;;;;;;;;;16.20;99.90;;;;;;5093203;28;19904;-73
2021/10/10 10:32:17;;;;;;;;;;;16.30;99.90;;;;;;5093456;28;19908;-74
2021/10/10 10:34:59;;;;;;;;;;;16.20;99.90;;;;;;5096592;28;20352;-75
2021/10/10 10:37:43;;;;;;;;;;;16.20;99.90;;;;;;5097371;28;20045;-73
2021/10/10 10:40:14;;;;;;;;;;;16.20;99.90;;;;;;5096769;28;19908;-74
2021/10/10 10:42:41;;;;;;;;;;;16.30;99.90;;;;;;5096742;28;19953;-73
2021/10/10 10:45:23;;;;;;;;;;;16.50;99.90;;;;;;5096972;28;19919;-74
2021/10/10 10:47:49;;;;;;;;;;;16.60;99.90;;;;;;5096948;28;19908;-74
2021/10/10 10:50:21;;;;;;;;;;;16.70;99.90;;;;;;5096606;28;19954;-74
2021/10/10 10:52:54;;;;;;;;;;;16.70;99.90;;;;;;5096739;28;19915;-74
2021/10/10 10:55:20;;;;;;;;;;;16.70;99.90;;;;;;5096526;28;19958;-74
2021/10/10 10:57:55;;;;;;;;;;;16.70;99.90;;;;;;5096453;28;20414;-74
2021/10/10 11:00:24;;;;;;;;;;;16.70;99.90;;;;;;5096654;28;20263;-75
2021/10/10 11:02:58;;;;;;;;;;;16.50;99.90;;;;;;5096659;28;20360;-74
2021/10/10 11:05:37;;;;;;;;;;;16.50;99.90;;;;;;5096333;28;19912;-74
2021/10/10 11:08:03;;;;;;;;;;;16.50;99.90;;;;;;5096546;28;19904;-74
2021/10/10 11:10:29;;;;;;;;;;;16.70;99.90;;;;;;5096007;28;19912;-75
2021/10/10 11:12:56;;;;;;;;;;;16.80;99.90;;;;;;5095698;28;19971;-74
2021/10/10 11:15:21;;;;;;;;;;;16.80;99.90;;;;;;5094864;28;20280;-75
2021/10/10 11:17:54;;;;;;;;;;;16.90;99.90;;;;;;5096365;28;19910;-74
2021/10/10 11:20:19;;;;;;;;;;;16.90;99.90;;;;;;5095953;28;19904;-75
2021/10/10 11:22:45;;;;;;;;;;;17.10;99.90;;;;;;5095987;28;20380;-74
2021/10/10 11:25:10;;;;;;;;;;;17.20;99.90;;;;;;5096218;28;20322;-74
2021/10/10 11:27:36;;;;;;;;;;;17.20;99.90;;;;;;5095686;28;19904;-75
2021/10/10 11:30:03;;;;;;;;;;;17.20;99.90;;;;;;5094540;28;19904;-73
2021/10/10 11:32:28;;;;;;;;;;;17.20;99.90;;;;;;5094394;28;20414;-74
2021/10/10 11:34:58;;;;;;;;;;;17.20;99.90;;;;;;5095998;28;19904;-74
2021/10/10 11:37:23;;;;;;;;;;;17.20;99.90;;;;;;5095671;28;19956;-74
2021/10/10 11:39:49;;;;;;;;;;;17.20;99.90;;;;;;5095645;28;19903;-74
2021/10/10 11:42:14;;;;;;;;;;;17.00;99.90;;;;;;5095577;28;20366;-75
2021/10/10 11:44:41;;;;;;;;;;;16.90;99.90;;;;;;5095130;28;19908;-74
2021/10/10 11:47:16;;;;;;;;;;;16.90;99.90;;;;;;5095759;28;19930;-74
2021/10/10 11:49:43;;;;;;;;;;;17.00;99.90;;;;;;5095439;28;19904;-74
2021/10/10 11:52:19;;;;;;;;;;;16.90;99.90;;;;;;5095291;28;20280;-74
2021/10/10 11:54:47;;;;;;;;;;;16.80;99.90;;;;;;5095950;28;19958;-74
2021/10/10 11:57:13;;;;;;;;;;;16.70;99.90;;;;;;5095293;28;19904;-75
2021/10/10 11:59:51;;;;;;;;;;;16.70;99.90;;;;;;5095259;28;19912;-74
2021/10/10 12:02:17;;;;;;;;;;;16.80;99.90;;;;;;5095515;28;19966;-74
2021/10/10 12:04:43;;;;;;;;;;;16.90;99.90;;;;;;5095178;28;20380;-74
2021/10/10 12:07:09;;;;;;;;;;;17.10;99.90;;;;;;5095081;28;19908;-74
2021/10/10 12:09:46;;;;;;;;;;;17.10;99.90;;;;;;5095629;28;19930;-74
2021/10/10 12:12:14;;;;;;;;;;;17.10;99.90;;;;;;5094720;28;20003;-75
2021/10/10 12:14:40;;;;;;;;;;;17.10;99.90;;;;;;5094917;28;19908;-75
2021/10/10 12:17:06;;;;;;;;;;;17.30;99.90;;;;;;5095490;28;19947;-74
2021/10/10 12:19:40;;;;;;;;;;;17.30;99.90;;;;;;5095200;28;19969;-74
2021/10/10 12:22:06;;;;;;;;;;;17.40;99.90;;;;;;5094793;28;19990;-74
2021/10/10 12:24:41;;;;;;;;;;;17.40;99.90;;;;;;5094871;28;19912;-74
2021/10/10 12:27:06;;;;;;;;;;;17.50;99.90;;;;;;5095038;28;20340;-75
2021/10/10 12:29:32;;;;;;;;;;;17.50;99.90;;;;;;5095015;28;19911;-74
2021/10/10 12:32:16;;;;;;;;;;;17.50;99.90;;;;;;5094597;28;19915;-73
2021/10/10 12:34:42;;;;;;;;;;;17.60;99.90;;;;;;5094594;28;19904;-74
2021/10/10 12:37:20;;;;;;;;;;;17.70;99.90;;;;;;5095142;28;19908;-74
2021/10/10 12:39:47;;;;;;;;;;;17.70;99.90;;;;;;5094523;28;19904;-74
2021/10/10 12:42:13;;;;;;;;;;;17.70;99.90;;;;;;5094490;28;20351;-75
2021/10/10 12:44:38;;;;;;;;;;;17.70;99.90;;;;;;5094722;28;20394;-73
2021/10/10 12:47:05;;;;;;;;;;;17.70;99.90;;;;;;5094365;28;19904;-74
2021/10/10 12:49:35;;;;;;;;;;;17.70;99.90;;;;;;5094396;28;19912;-74
2021/10/10 12:52:02;;;;;;;;;;;17.70;99.90;;;;;;5094513;28;19908;-74
2021/10/10 12:54:28;;;;;;;;;;;17.70;99.90;;;;;;5094273;28;19991;-74
2021/10/10 12:56:58;;;;;;;;;;;17.70;99.90;;;;;;5093418;28;19911;-75
2021/10/10 12:59:24;;;;;;;;;;;17.90;99.90;;;;;;5094313;28;19987;-75
2021/10/10 13:01:49;;;;;;;;;;;18.00;99.90;;;;;;5094035;28;19928;-74
2021/10/10 13:04:15;;;;;;;;;;;17.90;99.90;;;;;;5094264;28;19904;-75
2021/10/10 13:06:44;;;;;;;;;;;17.90;99.90;;;;;;5094001;28;19911;-74
2021/10/10 13:09:11;;;;;;;;;;;17.90;99.90;;;;;;5093967;28;19908;-74
2021/10/10 13:11:37;;;;;;;;;;;18.00;99.90;;;;;;5093846;28;19962;-75
2021/10/10 13:14:02;;;;;;;;;;;17.90;99.90;;;;;;5094475;28;19904;-74
2021/10/10 13:16:28;;;;;;;;;;;17.90;99.90;;;;;;5093889;28;19904;-74
2021/10/10 13:18:53;;;;;;;;;;;18.00;99.90;;;;;;5093848;28;19910;-73
2021/10/10 13:21:19;;;;;;;;;;;17.90;99.90;;;;;;5093735;28;20417;-74
2021/10/10 13:23:44;;;;;;;;;;;17.80;99.90;;;;;;5092522;28;19949;-73
2021/10/10 13:26:10;;;;;;;;;;;17.80;99.90;;;;;;5093814;28;20265;-74
2021/10/10 13:28:35;;;;;;;;;;;17.90;99.90;;;;;;5094026;28;20237;-75
2021/10/10 13:31:04;;;;;;;;;;;18.00;99.90;;;;;;5093679;28;20352;-74
2021/10/10 13:33:34;;;;;;;;;;;18.00;99.90;;;;;;5094293;28;20405;-74
2021/10/10 13:36:01;;;;;;;;;;;17.90;99.90;;;;;;5093670;28;19908;-74
2021/10/10 13:38:27;;;;;;;;;;;17.90;99.90;;;;;;5093922;28;19908;-75
2021/10/10 13:40:52;;;;;;;;;;;17.80;99.90;;;;;;5093627;28;20329;-74
2021/10/10 13:43:18;;;;;;;;;;;18.00;99.90;;;;;;5093834;28;19956;-73
2021/10/10 13:45:45;;;;;;;;;;;18.00;99.90;;;;;;5093635;28;19905;-74
2021/10/10 13:48:10;;;;;;;;;;;18.00;99.90;;;;;;5093655;28;19904;-75
2021/10/10 13:50:36;;;;;;;;;;;18.00;99.90;;;;;;5093873;28;19911;-74
2021/10/10 13:53:02;;;;;;;;;;;17.80;99.90;;;;;;5093770;28;20364;-73
2021/10/10 13:55:28;;;;;;;;;;;17.80;99.90;;;;;;5094099;28;19908;-74
2021/10/10 13:57:53;;;;;;;;;;;17.80;99.90;;;;;;5093550;28;19939;-74
2021/10/10 14:00:19;;;;;;;;;;;18.00;99.90;;;;;;5093531;28;19908;-74
2021/10/10 14:02:44;;;;;;;;;;;18.10;99.90;;;;;;5093618;28;19904;-73
2021/10/10 14:05:10;;;;;;;;;;;18.10;99.90;;;;;;5093498;28;20318;-74
2021/10/10 14:07:39;;;;;;;;;;;18.00;99.90;;;;;;5094869;28;19965;-74
2021/10/10 14:10:05;;;;;;;;;;;18.00;99.90;;;;;;5097589;28;19946;-75
2021/10/10 14:12:30;;;;;;;;;;;18.00;99.90;;;;;;5096975;28;19945;-75
2021/10/10 14:14:56;;;;;;;;;;;18.00;99.90;;;;;;5097356;28;20352;-75
2021/10/10 14:17:21;;;;;;;;;;;17.90;99.90;;;;;;5097303;28;20375;-75
2021/10/10 14:19:47;;;;;;;;;;;17.70;99.90;;;;;;5097049;28;20042;-74
2021/10/10 14:22:13;;;;;;;;;;;17.70;99.90;;;;;;5097197;28;19904;-74